sensor_id;sensor_type;location;lat;lon;timestamp;P1;durP1;ratioP1;P2;durP2;ratioP2
31402;SDS011;18039;52.188;21.024;2023-03-31T00:00:23;20.52;;;12.80;;
31402;SDS011;18039;52.188;21.024;2023-03-31T00:03:10;26.85;;;13.35;;
31402;SDS011;18039;52.188;21.024;2023-03-31T00:05:37;21.45;;;12.60;;
31402;SDS011;18039;52.188;21.024;2023-03-31T00:08:04;22.48;;;13.43;;
31402;SDS011;18039;52.188;21.024;2023-03-31T00:10:33;18.60;;;12.23;;
31402;SDS011;18039;52.188;21.024;2023-03-31T00:13:00;23.98;;;12.75;;
31402;SDS011;18039;52.188;21.024;2023-03-31T00:15:28;23.50;;;12.90;;
31402;SDS011;18039;52.188;21.024;2023-03-31T00:17:55;18.73;;;11.93;;
31402;SDS011;18039;52.188;21.024;2023-03-31T00:20:26;18.40;;;12.68;;
31402;SDS011;18039;52.188;21.024;2023-03-31T00:22:53;21.17;;;12.68;;
31402;SDS011;18039;52.188;21.024;2023-03-31T00:25:23;20.77;;;12.88;;
31402;SDS011;18039;52.188;21.024;2023-03-31T00:27:50;18.88;;;12.55;;
31402;SDS011;18039;52.188;21.024;2023-03-31T00:30:18;20.35;;;12.35;;
31402;SDS011;18039;52.188;21.024;2023-03-31T00:32:46;20.73;;;11.70;;
31402;SDS011;18039;52.188;21.024;2023-03-31T00:35:13;20.20;;;11.48;;
31402;SDS011;18039;52.188;21.024;2023-03-31T00:37:41;18.70;;;11.32;;
31402;SDS011;18039;52.188;21.024;2023-03-31T00:40:09;18.25;;;11.35;;
31402;SDS011;18039;52.188;21.024;2023-03-31T00:42:38;18.00;;;11.68;;
31402;SDS011;18039;52.188;21.024;2023-03-31T00:47:44;20.27;;;11.70;;
31402;SDS011;18039;52.188;21.024;2023-03-31T00:50:15;15.88;;;10.60;;
31402;SDS011;18039;52.188;21.024;2023-03-31T00:52:50;17.60;;;11.82;;
31402;SDS011;18039;52.188;21.024;2023-03-31T00:55:28;19.48;;;10.85;;
31402;SDS011;18039;52.188;21.024;2023-03-31T00:58:00;19.73;;;11.25;;
31402;SDS011;18039;52.188;21.024;2023-03-31T01:00:30;17.52;;;11.15;;
31402;SDS011;18039;52.188;21.024;2023-03-31T01:02:58;16.38;;;10.30;;
31402;SDS011;18039;52.188;21.024;2023-03-31T01:08:04;17.83;;;10.65;;
31402;SDS011;18039;52.188;21.024;2023-03-31T01:10:35;16.02;;;9.98;;
31402;SDS011;18039;52.188;21.024;2023-03-31T01:13:08;16.80;;;9.60;;
31402;SDS011;18039;52.188;21.024;2023-03-31T01:15:37;13.77;;;9.50;;
31402;SDS011;18039;52.188;21.024;2023-03-31T01:18:05;16.33;;;9.80;;
31402;SDS011;18039;52.188;21.024;2023-03-31T01:26:15;18.67;;;10.38;;
31402;SDS011;18039;52.188;21.024;2023-03-31T01:56:45;16.33;;;9.32;;
31402;SDS011;18039;52.188;21.024;2023-03-31T01:59:29;13.63;;;9.27;;
31402;SDS011;18039;52.188;21.024;2023-03-31T02:02:07;13.70;;;9.43;;
31402;SDS011;18039;52.188;21.024;2023-03-31T02:04:45;17.75;;;9.60;;
31402;SDS011;18039;52.188;21.024;2023-03-31T02:07:20;14.85;;;9.73;;
31402;SDS011;18039;52.188;21.024;2023-03-31T02:09:55;17.52;;;9.93;;
31402;SDS011;18039;52.188;21.024;2023-03-31T02:12:26;15.05;;;9.68;;
31402;SDS011;18039;52.188;21.024;2023-03-31T02:14:56;14.77;;;9.35;;
31402;SDS011;18039;52.188;21.024;2023-03-31T02:17:26;16.33;;;8.55;;
31402;SDS011;18039;52.188;21.024;2023-03-31T02:20:00;17.85;;;10.27;;
31402;SDS011;18039;52.188;21.024;2023-03-31T02:22:34;13.90;;;9.45;;
31402;SDS011;18039;52.188;21.024;2023-03-31T02:25:03;13.02;;;9.38;;
31402;SDS011;18039;52.188;21.024;2023-03-31T02:27:34;15.10;;;9.03;;
31402;SDS011;18039;52.188;21.024;2023-03-31T02:30:05;14.23;;;8.82;;
31402;SDS011;18039;52.188;21.024;2023-03-31T02:35:01;19.13;;;10.80;;
31402;SDS011;18039;52.188;21.024;2023-03-31T02:37:29;14.32;;;9.73;;
31402;SDS011;18039;52.188;21.024;2023-03-31T02:39:58;13.98;;;9.07;;
31402;SDS011;18039;52.188;21.024;2023-03-31T02:42:28;14.80;;;9.73;;
31402;SDS011;18039;52.188;21.024;2023-03-31T02:45:03;16.55;;;9.80;;
31402;SDS011;18039;52.188;21.024;2023-03-31T02:47:32;14.60;;;8.90;;
31402;SDS011;18039;52.188;21.024;2023-03-31T02:50:00;16.52;;;8.85;;
31402;SDS011;18039;52.188;21.024;2023-03-31T02:52:48;15.30;;;9.45;;
31402;SDS011;18039;52.188;21.024;2023-03-31T02:55:46;12.57;;;9.02;;
31402;SDS011;18039;52.188;21.024;2023-03-31T03:07:15;14.52;;;9.23;;
31402;SDS011;18039;52.188;21.024;2023-03-31T03:10:16;13.70;;;9.52;;
31402;SDS011;18039;52.188;21.024;2023-03-31T03:15:32;13.65;;;8.25;;
31402;SDS011;18039;52.188;21.024;2023-03-31T03:18:03;16.17;;;9.55;;
31402;SDS011;18039;52.188;21.024;2023-03-31T03:20:32;13.63;;;9.40;;
31402;SDS011;18039;52.188;21.024;2023-03-31T03:22:59;13.68;;;9.23;;
31402;SDS011;18039;52.188;21.024;2023-03-31T03:25:27;15.70;;;9.52;;
31402;SDS011;18039;52.188;21.024;2023-03-31T03:27:55;15.00;;;9.75;;
31402;SDS011;18039;52.188;21.024;2023-03-31T03:30:23;13.10;;;9.82;;
31402;SDS011;18039;52.188;21.024;2023-03-31T03:32:50;13.43;;;9.52;;
31402;SDS011;18039;52.188;21.024;2023-03-31T03:35:17;15.10;;;9.05;;
31402;SDS011;18039;52.188;21.024;2023-03-31T03:37:44;14.70;;;9.93;;
31402;SDS011;18039;52.188;21.024;2023-03-31T03:40:11;14.38;;;9.82;;
31402;SDS011;18039;52.188;21.024;2023-03-31T03:42:38;14.88;;;9.73;;
31402;SDS011;18039;52.188;21.024;2023-03-31T03:45:06;15.13;;;10.65;;
31402;SDS011;18039;52.188;21.024;2023-03-31T03:47:33;18.88;;;11.15;;
31402;SDS011;18039;52.188;21.024;2023-03-31T03:50:02;16.08;;;10.95;;
31402;SDS011;18039;52.188;21.024;2023-03-31T03:52:30;18.08;;;10.25;;
31402;SDS011;18039;52.188;21.024;2023-03-31T03:54:58;16.75;;;10.65;;
31402;SDS011;18039;52.188;21.024;2023-03-31T03:57:25;19.65;;;11.63;;
31402;SDS011;18039;52.188;21.024;2023-03-31T03:59:53;18.02;;;11.38;;
31402;SDS011;18039;52.188;21.024;2023-03-31T04:02:20;15.70;;;10.75;;
31402;SDS011;18039;52.188;21.024;2023-03-31T04:04:47;19.58;;;12.32;;
31402;SDS011;18039;52.188;21.024;2023-03-31T04:07:14;19.58;;;13.15;;
31402;SDS011;18039;52.188;21.024;2023-03-31T04:09:42;21.95;;;12.68;;
31402;SDS011;18039;52.188;21.024;2023-03-31T04:12:09;22.55;;;12.32;;
31402;SDS011;18039;52.188;21.024;2023-03-31T04:14:36;21.30;;;13.60;;
31402;SDS011;18039;52.188;21.024;2023-03-31T04:17:03;22.42;;;12.70;;
31402;SDS011;18039;52.188;21.024;2023-03-31T04:19:30;20.50;;;13.15;;
31402;SDS011;18039;52.188;21.024;2023-03-31T04:21:57;21.85;;;12.90;;
31402;SDS011;18039;52.188;21.024;2023-03-31T04:24:29;19.63;;;12.77;;
31402;SDS011;18039;52.188;21.024;2023-03-31T04:26:59;22.77;;;13.68;;
31402;SDS011;18039;52.188;21.024;2023-03-31T04:29:27;21.02;;;12.63;;
31402;SDS011;18039;52.188;21.024;2023-03-31T04:31:54;22.60;;;12.43;;
31402;SDS011;18039;52.188;21.024;2023-03-31T04:34:25;30.80;;;13.40;;
31402;SDS011;18039;52.188;21.024;2023-03-31T04:37:01;21.13;;;12.45;;
31402;SDS011;18039;52.188;21.024;2023-03-31T04:39:29;18.80;;;12.77;;
31402;SDS011;18039;52.188;21.024;2023-03-31T04:41:57;28.42;;;13.80;;
31402;SDS011;18039;52.188;21.024;2023-03-31T04:44:25;21.13;;;12.35;;
31402;SDS011;18039;52.188;21.024;2023-03-31T04:46:53;24.60;;;13.57;;
31402;SDS011;18039;52.188;21.024;2023-03-31T04:49:21;23.65;;;14.38;;
31402;SDS011;18039;52.188;21.024;2023-03-31T04:51:48;24.67;;;13.45;;
31402;SDS011;18039;52.188;21.024;2023-03-31T04:54:16;23.45;;;13.00;;
31402;SDS011;18039;52.188;21.024;2023-03-31T04:56:43;24.58;;;13.98;;
31402;SDS011;18039;52.188;21.024;2023-03-31T04:59:10;19.15;;;12.90;;
31402;SDS011;18039;52.188;21.024;2023-03-31T05:01:37;20.10;;;12.65;;
31402;SDS011;18039;52.188;21.024;2023-03-31T05:04:05;23.42;;;13.50;;
31402;SDS011;18039;52.188;21.024;2023-03-31T05:06:32;20.58;;;12.85;;
31402;SDS011;18039;52.188;21.024;2023-03-31T05:08:59;24.02;;;13.45;;
31402;SDS011;18039;52.188;21.024;2023-03-31T05:11:26;19.77;;;12.73;;
31402;SDS011;18039;52.188;21.024;2023-03-31T05:13:55;22.67;;;13.48;;
31402;SDS011;18039;52.188;21.024;2023-03-31T05:16:22;22.33;;;13.90;;
31402;SDS011;18039;52.188;21.024;2023-03-31T05:18:49;19.40;;;12.77;;
31402;SDS011;18039;52.188;21.024;2023-03-31T05:21:17;20.75;;;13.15;;
31402;SDS011;18039;52.188;21.024;2023-03-31T05:23:46;25.20;;;13.20;;
31402;SDS011;18039;52.188;21.024;2023-03-31T05:26:14;22.85;;;13.05;;
31402;SDS011;18039;52.188;21.024;2023-03-31T05:28:42;19.67;;;13.43;;
31402;SDS011;18039;52.188;21.024;2023-03-31T05:31:09;21.60;;;12.65;;
31402;SDS011;18039;52.188;21.024;2023-03-31T05:33:39;36.10;;;14.30;;
31402;SDS011;18039;52.188;21.024;2023-03-31T05:36:11;23.27;;;15.48;;
31402;SDS011;18039;52.188;21.024;2023-03-31T05:38:41;21.02;;;13.57;;
31402;SDS011;18039;52.188;21.024;2023-03-31T05:41:09;22.95;;;12.70;;
31402;SDS011;18039;52.188;21.024;2023-03-31T05:43:37;20.38;;;13.48;;
31402;SDS011;18039;52.188;21.024;2023-03-31T05:46:05;22.50;;;13.13;;
31402;SDS011;18039;52.188;21.024;2023-03-31T05:48:34;20.13;;;13.27;;
31402;SDS011;18039;52.188;21.024;2023-03-31T05:51:03;23.92;;;13.40;;
31402;SDS011;18039;52.188;21.024;2023-03-31T05:53:30;21.48;;;12.80;;
31402;SDS011;18039;52.188;21.024;2023-03-31T05:55:58;22.83;;;13.65;;
31402;SDS011;18039;52.188;21.024;2023-03-31T05:58:28;30.83;;;14.20;;
31402;SDS011;18039;52.188;21.024;2023-03-31T06:01:02;22.45;;;14.90;;
31402;SDS011;18039;52.188;21.024;2023-03-31T06:03:36;20.35;;;13.55;;
31402;SDS011;18039;52.188;21.024;2023-03-31T06:06:09;25.20;;;14.95;;
31402;SDS011;18039;52.188;21.024;2023-03-31T06:08:39;20.20;;;12.98;;
31402;SDS011;18039;52.188;21.024;2023-03-31T06:11:07;19.15;;;12.82;;
31402;SDS011;18039;52.188;21.024;2023-03-31T06:13:37;21.00;;;13.00;;
31402;SDS011;18039;52.188;21.024;2023-03-31T06:16:05;19.38;;;12.85;;
31402;SDS011;18039;52.188;21.024;2023-03-31T06:18:34;20.75;;;13.02;;
31402;SDS011;18039;52.188;21.024;2023-03-31T06:21:02;24.08;;;13.48;;
31402;SDS011;18039;52.188;21.024;2023-03-31T06:23:31;22.13;;;11.75;;
31402;SDS011;18039;52.188;21.024;2023-03-31T06:26:00;19.75;;;13.05;;
31402;SDS011;18039;52.188;21.024;2023-03-31T06:28:29;21.00;;;13.25;;
31402;SDS011;18039;52.188;21.024;2023-03-31T06:31:04;18.45;;;13.23;;
31402;SDS011;18039;52.188;21.024;2023-03-31T06:33:38;18.25;;;11.85;;
31402;SDS011;18039;52.188;21.024;2023-03-31T06:36:07;18.67;;;12.18;;
31402;SDS011;18039;52.188;21.024;2023-03-31T06:38:36;19.15;;;12.45;;
31402;SDS011;18039;52.188;21.024;2023-03-31T06:41:07;18.60;;;12.32;;
31402;SDS011;18039;52.188;21.024;2023-03-31T06:43:37;22.65;;;12.15;;
31402;SDS011;18039;52.188;21.024;2023-03-31T06:46:05;18.00;;;12.15;;
31402;SDS011;18039;52.188;21.024;2023-03-31T06:48:33;17.92;;;11.80;;
31402;SDS011;18039;52.188;21.024;2023-03-31T06:51:00;21.60;;;12.32;;
31402;SDS011;18039;52.188;21.024;2023-03-31T06:53:30;22.17;;;12.55;;
31402;SDS011;18039;52.188;21.024;2023-03-31T06:55:57;21.92;;;12.63;;
31402;SDS011;18039;52.188;21.024;2023-03-31T06:58:25;19.65;;;12.38;;
31402;SDS011;18039;52.188;21.024;2023-03-31T07:00:55;20.48;;;12.73;;
31402;SDS011;18039;52.188;21.024;2023-03-31T07:03:22;18.45;;;12.20;;
31402;SDS011;18039;52.188;21.024;2023-03-31T07:05:51;18.45;;;12.25;;
31402;SDS011;18039;52.188;21.024;2023-03-31T07:08:19;17.83;;;11.63;;
31402;SDS011;18039;52.188;21.024;2023-03-31T07:10:48;19.00;;;13.18;;
31402;SDS011;18039;52.188;21.024;2023-03-31T07:13:16;18.83;;;12.15;;
31402;SDS011;18039;52.188;21.024;2023-03-31T07:15:46;20.23;;;12.93;;
31402;SDS011;18039;52.188;21.024;2023-03-31T07:18:15;20.45;;;13.63;;
31402;SDS011;18039;52.188;21.024;2023-03-31T07:20:43;21.40;;;14.07;;
31402;SDS011;18039;52.188;21.024;2023-03-31T07:23:15;23.65;;;14.98;;
31402;SDS011;18039;52.188;21.024;2023-03-31T07:25:42;22.50;;;14.82;;
31402;SDS011;18039;52.188;21.024;2023-03-31T07:28:10;28.00;;;16.10;;
31402;SDS011;18039;52.188;21.024;2023-03-31T07:30:38;23.15;;;15.38;;
31402;SDS011;18039;52.188;21.024;2023-03-31T07:33:06;22.20;;;14.85;;
31402;SDS011;18039;52.188;21.024;2023-03-31T07:35:36;23.77;;;14.38;;
31402;SDS011;18039;52.188;21.024;2023-03-31T07:40:33;21.92;;;14.27;;
31402;SDS011;18039;52.188;21.024;2023-03-31T07:43:01;21.45;;;15.35;;
31402;SDS011;18039;52.188;21.024;2023-03-31T07:45:29;23.08;;;14.93;;
31402;SDS011;18039;52.188;21.024;2023-03-31T07:47:57;21.50;;;14.38;;
31402;SDS011;18039;52.188;21.024;2023-03-31T07:50:24;23.17;;;14.73;;
31402;SDS011;18039;52.188;21.024;2023-03-31T07:52:54;21.00;;;13.43;;
31402;SDS011;18039;52.188;21.024;2023-03-31T07:55:21;23.58;;;14.65;;
31402;SDS011;18039;52.188;21.024;2023-03-31T07:57:49;18.63;;;13.50;;
31402;SDS011;18039;52.188;21.024;2023-03-31T08:00:17;26.25;;;14.45;;
31402;SDS011;18039;52.188;21.024;2023-03-31T08:02:45;21.33;;;13.45;;
31402;SDS011;18039;52.188;21.024;2023-03-31T08:05:15;22.50;;;14.00;;
31402;SDS011;18039;52.188;21.024;2023-03-31T08:07:45;20.80;;;12.85;;
31402;SDS011;18039;52.188;21.024;2023-03-31T08:10:15;19.08;;;12.13;;
31402;SDS011;18039;52.188;21.024;2023-03-31T08:12:45;21.73;;;13.95;;
31402;SDS011;18039;52.188;21.024;2023-03-31T08:15:12;20.42;;;13.35;;
31402;SDS011;18039;52.188;21.024;2023-03-31T08:17:39;20.17;;;14.05;;
31402;SDS011;18039;52.188;21.024;2023-03-31T08:20:07;20.48;;;13.20;;
31402;SDS011;18039;52.188;21.024;2023-03-31T08:22:36;23.13;;;13.48;;
31402;SDS011;18039;52.188;21.024;2023-03-31T08:25:04;15.98;;;11.32;;
31402;SDS011;18039;52.188;21.024;2023-03-31T08:27:34;18.92;;;11.65;;
31402;SDS011;18039;52.188;21.024;2023-03-31T08:30:04;20.75;;;12.18;;
31402;SDS011;18039;52.188;21.024;2023-03-31T08:32:36;18.05;;;11.63;;
31402;SDS011;18039;52.188;21.024;2023-03-31T08:35:03;16.98;;;11.65;;
31402;SDS011;18039;52.188;21.024;2023-03-31T08:37:31;21.52;;;11.68;;
31402;SDS011;18039;52.188;21.024;2023-03-31T08:39:58;19.50;;;11.35;;
31402;SDS011;18039;52.188;21.024;2023-03-31T08:42:33;17.55;;;10.63;;
31402;SDS011;18039;52.188;21.024;2023-03-31T08:45:06;15.57;;;9.85;;
31402;SDS011;18039;52.188;21.024;2023-03-31T08:47:44;15.30;;;9.27;;
31402;SDS011;18039;52.188;21.024;2023-03-31T08:50:16;14.45;;;9.25;;
31402;SDS011;18039;52.188;21.024;2023-03-31T08:52:49;13.55;;;8.82;;
31402;SDS011;18039;52.188;21.024;2023-03-31T08:55:23;19.17;;;9.60;;
31402;SDS011;18039;52.188;21.024;2023-03-31T09:01:05;20.73;;;10.97;;
31402;SDS011;18039;52.188;21.024;2023-03-31T09:06:40;16.58;;;10.13;;
31402;SDS011;18039;52.188;21.024;2023-03-31T09:09:27;16.75;;;9.55;;
31402;SDS011;18039;52.188;21.024;2023-03-31T09:12:06;16.73;;;9.45;;
31402;SDS011;18039;52.188;21.024;2023-03-31T09:14:43;16.35;;;9.30;;
31402;SDS011;18039;52.188;21.024;2023-03-31T09:17:40;16.60;;;7.75;;
31402;SDS011;18039;52.188;21.024;2023-03-31T09:25:51;15.68;;;7.90;;
31402;SDS011;18039;52.188;21.024;2023-03-31T09:28:38;15.55;;;7.65;;
31402;SDS011;18039;52.188;21.024;2023-03-31T09:31:16;11.13;;;6.90;;
31402;SDS011;18039;52.188;21.024;2023-03-31T09:33:46;17.00;;;7.03;;
31402;SDS011;18039;52.188;21.024;2023-03-31T09:36:15;13.85;;;6.57;;
31402;SDS011;18039;52.188;21.024;2023-03-31T09:38:48;13.98;;;6.90;;
31402;SDS011;18039;52.188;21.024;2023-03-31T09:41:16;12.50;;;6.40;;
31402;SDS011;18039;52.188;21.024;2023-03-31T09:43:47;10.10;;;6.97;;
31402;SDS011;18039;52.188;21.024;2023-03-31T09:46:21;14.80;;;6.47;;
31402;SDS011;18039;52.188;21.024;2023-03-31T09:51:33;9.98;;;5.43;;
31402;SDS011;18039;52.188;21.024;2023-03-31T09:54:18;13.95;;;5.95;;
31402;SDS011;18039;52.188;21.024;2023-03-31T09:56:58;10.52;;;5.53;;
31402;SDS011;18039;52.188;21.024;2023-03-31T10:02:02;8.95;;;5.72;;
31402;SDS011;18039;52.188;21.024;2023-03-31T10:04:45;8.52;;;5.47;;
31402;SDS011;18039;52.188;21.024;2023-03-31T10:07:12;10.32;;;5.25;;
31402;SDS011;18039;52.188;21.024;2023-03-31T10:09:50;9.77;;;4.85;;
31402;SDS011;18039;52.188;21.024;2023-03-31T10:12:21;14.50;;;5.00;;
31402;SDS011;18039;52.188;21.024;2023-03-31T10:14:52;8.18;;;4.22;;
31402;SDS011;18039;52.188;21.024;2023-03-31T10:17:28;8.60;;;4.72;;
31402;SDS011;18039;52.188;21.024;2023-03-31T10:20:03;9.50;;;4.40;;
31402;SDS011;18039;52.188;21.024;2023-03-31T10:22:43;11.23;;;4.38;;
31402;SDS011;18039;52.188;21.024;2023-03-31T10:25:20;10.82;;;4.78;;
31402;SDS011;18039;52.188;21.024;2023-03-31T10:27:54;12.80;;;4.32;;
31402;SDS011;18039;52.188;21.024;2023-03-31T10:30:23;9.68;;;4.45;;
31402;SDS011;18039;52.188;21.024;2023-03-31T10:32:55;13.30;;;4.80;;
31402;SDS011;18039;52.188;21.024;2023-03-31T10:35:32;9.05;;;3.90;;
31402;SDS011;18039;52.188;21.024;2023-03-31T10:38:02;10.88;;;3.67;;
31402;SDS011;18039;52.188;21.024;2023-03-31T10:40:33;11.23;;;4.05;;
31402;SDS011;18039;52.188;21.024;2023-03-31T10:43:08;7.28;;;3.95;;
31402;SDS011;18039;52.188;21.024;2023-03-31T10:45:43;8.93;;;3.83;;
31402;SDS011;18039;52.188;21.024;2023-03-31T10:48:17;9.02;;;3.45;;
31402;SDS011;18039;52.188;21.024;2023-03-31T10:50:57;10.02;;;4.00;;
31402;SDS011;18039;52.188;21.024;2023-03-31T10:53:41;9.02;;;3.97;;
31402;SDS011;18039;52.188;21.024;2023-03-31T11:02:21;8.77;;;3.95;;
31402;SDS011;18039;52.188;21.024;2023-03-31T11:20:50;7.63;;;3.17;;
31402;SDS011;18039;52.188;21.024;2023-03-31T11:23:41;6.93;;;2.90;;
31402;SDS011;18039;52.188;21.024;2023-03-31T11:42:38;5.95;;;3.22;;
31402;SDS011;18039;52.188;21.024;2023-03-31T11:45:28;7.32;;;2.95;;
31402;SDS011;18039;52.188;21.024;2023-03-31T11:48:03;6.40;;;2.70;;
31402;SDS011;18039;52.188;21.024;2023-03-31T11:50:52;9.50;;;3.53;;
31402;SDS011;18039;52.188;21.024;2023-03-31T11:53:24;10.80;;;3.45;;
31402;SDS011;18039;52.188;21.024;2023-03-31T11:55:57;8.98;;;2.97;;
31402;SDS011;18039;52.188;21.024;2023-03-31T11:59:01;8.50;;;3.00;;
31402;SDS011;18039;52.188;21.024;2023-03-31T12:01:38;9.25;;;2.70;;
31402;SDS011;18039;52.188;21.024;2023-03-31T12:04:10;9.27;;;3.00;;
31402;SDS011;18039;52.188;21.024;2023-03-31T12:07:05;9.83;;;3.43;;
31402;SDS011;18039;52.188;21.024;2023-03-31T12:09:50;9.43;;;3.03;;
31402;SDS011;18039;52.188;21.024;2023-03-31T12:12:19;7.95;;;3.70;;
31402;SDS011;18039;52.188;21.024;2023-03-31T12:15:17;14.18;;;6.18;;
31402;SDS011;18039;52.188;21.024;2023-03-31T12:20:58;10.02;;;3.50;;
31402;SDS011;18039;52.188;21.024;2023-03-31T12:23:37;6.47;;;3.53;;
31402;SDS011;18039;52.188;21.024;2023-03-31T12:29:15;7.68;;;3.15;;
31402;SDS011;18039;52.188;21.024;2023-03-31T12:31:56;6.45;;;3.10;;
31402;SDS011;18039;52.188;21.024;2023-03-31T12:34:35;7.45;;;3.40;;
31402;SDS011;18039;52.188;21.024;2023-03-31T12:46:48;9.55;;;3.50;;
31402;SDS011;18039;52.188;21.024;2023-03-31T12:52:21;6.53;;;2.63;;
31402;SDS011;18039;52.188;21.024;2023-03-31T12:57:30;7.55;;;3.20;;
31402;SDS011;18039;52.188;21.024;2023-03-31T13:02:37;8.82;;;3.53;;
31402;SDS011;18039;52.188;21.024;2023-03-31T13:08:07;8.02;;;2.92;;
31402;SDS011;18039;52.188;21.024;2023-03-31T13:13:25;9.48;;;3.45;;
31402;SDS011;18039;52.188;21.024;2023-03-31T13:15:54;11.60;;;3.70;;
31402;SDS011;18039;52.188;21.024;2023-03-31T13:18:22;7.30;;;3.35;;
31402;SDS011;18039;52.188;21.024;2023-03-31T13:21:02;7.82;;;2.88;;
31402;SDS011;18039;52.188;21.024;2023-03-31T13:23:35;7.88;;;2.63;;
31402;SDS011;18039;52.188;21.024;2023-03-31T13:28:32;5.13;;;2.58;;
31402;SDS011;18039;52.188;21.024;2023-03-31T13:36:17;5.25;;;3.03;;
31402;SDS011;18039;52.188;21.024;2023-03-31T13:38:52;8.30;;;3.10;;
31402;SDS011;18039;52.188;21.024;2023-03-31T13:55:48;7.35;;;2.92;;
31402;SDS011;18039;52.188;21.024;2023-03-31T13:58:25;8.13;;;2.28;;
31402;SDS011;18039;52.188;21.024;2023-03-31T14:07:11;6.28;;;2.25;;
31402;SDS011;18039;52.188;21.024;2023-03-31T14:09:47;4.65;;;2.00;;
31402;SDS011;18039;52.188;21.024;2023-03-31T14:12:22;5.32;;;2.35;;
31402;SDS011;18039;52.188;21.024;2023-03-31T14:15:03;9.05;;;2.75;;
31402;SDS011;18039;52.188;21.024;2023-03-31T14:17:34;8.27;;;2.47;;
31402;SDS011;18039;52.188;21.024;2023-03-31T14:36:57;6.57;;;2.00;;
31402;SDS011;18039;52.188;21.024;2023-03-31T14:39:27;8.60;;;2.50;;
31402;SDS011;18039;52.188;21.024;2023-03-31T14:41:59;6.45;;;2.17;;
31402;SDS011;18039;52.188;21.024;2023-03-31T14:44:29;8.20;;;2.55;;
31402;SDS011;18039;52.188;21.024;2023-03-31T14:46:59;7.32;;;2.47;;
31402;SDS011;18039;52.188;21.024;2023-03-31T14:49:36;4.72;;;2.17;;
31402;SDS011;18039;52.188;21.024;2023-03-31T14:52:12;7.95;;;2.30;;
31402;SDS011;18039;52.188;21.024;2023-03-31T14:54:42;7.45;;;2.22;;
31402;SDS011;18039;52.188;21.024;2023-03-31T14:59:46;9.73;;;3.10;;
31402;SDS011;18039;52.188;21.024;2023-03-31T15:02:18;11.77;;;2.85;;
31402;SDS011;18039;52.188;21.024;2023-03-31T15:05:05;6.85;;;3.10;;
31402;SDS011;18039;52.188;21.024;2023-03-31T15:07:35;11.05;;;3.08;;
31402;SDS011;18039;52.188;21.024;2023-03-31T15:10:03;8.70;;;3.22;;
31402;SDS011;18039;52.188;21.024;2023-03-31T15:12:32;7.35;;;3.08;;
31402;SDS011;18039;52.188;21.024;2023-03-31T15:15:03;5.50;;;3.00;;
31402;SDS011;18039;52.188;21.024;2023-03-31T15:17:36;10.07;;;3.53;;
31402;SDS011;18039;52.188;21.024;2023-03-31T15:22:56;6.78;;;3.05;;
31402;SDS011;18039;52.188;21.024;2023-03-31T15:25:32;7.35;;;3.08;;
31402;SDS011;18039;52.188;21.024;2023-03-31T15:28:03;4.65;;;2.72;;
31402;SDS011;18039;52.188;21.024;2023-03-31T15:30:35;5.93;;;2.08;;
31402;SDS011;18039;52.188;21.024;2023-03-31T15:33:05;4.63;;;2.00;;
31402;SDS011;18039;52.188;21.024;2023-03-31T15:38:13;2.33;;;1.92;;
31402;SDS011;18039;52.188;21.024;2023-03-31T15:40:45;3.85;;;2.05;;
31402;SDS011;18039;52.188;21.024;2023-03-31T15:43:28;3.05;;;1.88;;
31402;SDS011;18039;52.188;21.024;2023-03-31T15:46:01;3.33;;;2.35;;
31402;SDS011;18039;52.188;21.024;2023-03-31T15:48:33;3.15;;;1.80;;
31402;SDS011;18039;52.188;21.024;2023-03-31T15:51:05;3.17;;;2.05;;
31402;SDS011;18039;52.188;21.024;2023-03-31T15:53:44;2.30;;;2.05;;
31402;SDS011;18039;52.188;21.024;2023-03-31T15:59:03;2.17;;;1.77;;
31402;SDS011;18039;52.188;21.024;2023-03-31T16:01:31;4.07;;;2.00;;
31402;SDS011;18039;52.188;21.024;2023-03-31T16:04:04;3.05;;;1.90;;
31402;SDS011;18039;52.188;21.024;2023-03-31T16:06:44;3.45;;;1.80;;
31402;SDS011;18039;52.188;21.024;2023-03-31T16:09:23;2.42;;;1.73;;
31402;SDS011;18039;52.188;21.024;2023-03-31T16:11:58;3.20;;;1.92;;
31402;SDS011;18039;52.188;21.024;2023-03-31T16:14:28;4.13;;;1.85;;
31402;SDS011;18039;52.188;21.024;2023-03-31T16:17:00;7.03;;;2.05;;
31402;SDS011;18039;52.188;21.024;2023-03-31T16:19:37;3.28;;;1.75;;
31402;SDS011;18039;52.188;21.024;2023-03-31T16:22:10;3.35;;;1.73;;
31402;SDS011;18039;52.188;21.024;2023-03-31T16:24:41;4.18;;;2.03;;
31402;SDS011;18039;52.188;21.024;2023-03-31T16:27:08;3.60;;;1.77;;
31402;SDS011;18039;52.188;21.024;2023-03-31T16:29:36;3.75;;;1.83;;
31402;SDS011;18039;52.188;21.024;2023-03-31T16:32:12;4.22;;;1.50;;
31402;SDS011;18039;52.188;21.024;2023-03-31T16:34:59;2.78;;;1.80;;
31402;SDS011;18039;52.188;21.024;2023-03-31T16:37:28;4.43;;;1.70;;
31402;SDS011;18039;52.188;21.024;2023-03-31T16:39:56;3.05;;;1.98;;
31402;SDS011;18039;52.188;21.024;2023-03-31T16:42:23;3.05;;;1.48;;
31402;SDS011;18039;52.188;21.024;2023-03-31T16:44:51;2.40;;;1.50;;
31402;SDS011;18039;52.188;21.024;2023-03-31T16:47:23;2.88;;;1.80;;
31402;SDS011;18039;52.188;21.024;2023-03-31T16:50:11;2.42;;;1.48;;
31402;SDS011;18039;52.188;21.024;2023-03-31T16:52:39;3.13;;;1.90;;
31402;SDS011;18039;52.188;21.024;2023-03-31T16:55:06;4.07;;;1.83;;
31402;SDS011;18039;52.188;21.024;2023-03-31T16:57:34;2.72;;;1.85;;
31402;SDS011;18039;52.188;21.024;2023-03-31T17:00:01;2.78;;;1.88;;
31402;SDS011;18039;52.188;21.024;2023-03-31T17:02:28;4.75;;;1.80;;
31402;SDS011;18039;52.188;21.024;2023-03-31T17:04:56;3.90;;;1.60;;
31402;SDS011;18039;52.188;21.024;2023-03-31T17:10:05;5.50;;;1.77;;
31402;SDS011;18039;52.188;21.024;2023-03-31T17:12:33;3.28;;;1.80;;
31402;SDS011;18039;52.188;21.024;2023-03-31T17:15:00;5.72;;;2.10;;
31402;SDS011;18039;52.188;21.024;2023-03-31T17:17:28;2.95;;;1.42;;
31402;SDS011;18039;52.188;21.024;2023-03-31T17:19:55;3.60;;;1.88;;
31402;SDS011;18039;52.188;21.024;2023-03-31T17:22:24;2.78;;;1.40;;
31402;SDS011;18039;52.188;21.024;2023-03-31T17:24:52;2.70;;;1.73;;
31402;SDS011;18039;52.188;21.024;2023-03-31T17:27:24;4.13;;;2.13;;
31402;SDS011;18039;52.188;21.024;2023-03-31T17:29:53;5.57;;;2.22;;
31402;SDS011;18039;52.188;21.024;2023-03-31T17:32:21;4.68;;;2.22;;
31402;SDS011;18039;52.188;21.024;2023-03-31T17:34:48;3.08;;;2.08;;
31402;SDS011;18039;52.188;21.024;2023-03-31T17:37:16;3.30;;;1.95;;
31402;SDS011;18039;52.188;21.024;2023-03-31T17:39:45;3.78;;;2.55;;
31402;SDS011;18039;52.188;21.024;2023-03-31T17:42:12;4.47;;;2.95;;
31402;SDS011;18039;52.188;21.024;2023-03-31T17:44:40;7.65;;;4.70;;
31402;SDS011;18039;52.188;21.024;2023-03-31T17:47:07;9.88;;;4.07;;
31402;SDS011;18039;52.188;21.024;2023-03-31T17:49:36;4.38;;;2.97;;
31402;SDS011;18039;52.188;21.024;2023-03-31T17:52:04;7.75;;;3.53;;
31402;SDS011;18039;52.188;21.024;2023-03-31T17:54:35;5.00;;;3.25;;
31402;SDS011;18039;52.188;21.024;2023-03-31T17:57:02;5.80;;;3.47;;
31402;SDS011;18039;52.188;21.024;2023-03-31T17:59:30;8.05;;;4.10;;
31402;SDS011;18039;52.188;21.024;2023-03-31T18:01:57;7.82;;;4.57;;
31402;SDS011;18039;52.188;21.024;2023-03-31T18:04:25;7.10;;;4.30;;